WetterOnline ( http://www.wetteronline.de )

Wetter aktuell Lichtenhain/Mittelndorf

Aktuelles Wetter: Lichtenhain/Mittelndorf (352m)

6-stündlich | Neueste Meldungen
Ortszeit Temperatur Wetter
Di, 22.01. 7:00 -7.8° C fast wolkenlos
Di, 22.01. 1:00 -6.3° C wolkig
Mo, 21.01. 19:00 -4.5° C wolkenlos
Mo, 21.01. 13:00 -3.4° C wolkenlos
Mo, 21.01. 7:00 -8.1° C bedeckt
Mo, 21.01. 1:00 -7.4° C wolkenlos
So, 20.01. 19:00 -2.8° C wolkenlos
So, 20.01. 13:00 -0.4° C fast wolkenlos
Ortszeit Temperatur Wetter
Di, 22.01. 8:30 -6.8° C bedeckt
Di, 22.01. 8:20 -6.8° C bedeckt
Di, 22.01. 8:10 -6.9° C bedeckt
Di, 22.01. 8:00 -7.0° C bedeckt
Di, 22.01. 7:50 -7.0° C bedeckt
Di, 22.01. 7:40 -7.0° C bedeckt
Di, 22.01. 7:30 -7.1° C bewölkt
Di, 22.01. 7:00 -7.8° C fast wolkenlos
Di, 22.01. 6:30 -7.9° C wolkenlos
Di, 22.01. 6:00 -7.3° C wolkenlos
Di, 22.01. 5:30 -6.9° C wolkenlos
Ortszeit Relative Feuchte Sichtweite
Di, 22.01. 7:00 91% 2.6 km
Di, 22.01. 1:00 92% 3.3 km
Mo, 21.01. 19:00 90% 7 km
Mo, 21.01. 13:00 86% 7 km
Mo, 21.01. 7:00 91% 5.0 km
Mo, 21.01. 1:00 94% 5.0 km
So, 20.01. 19:00 79% 14 km
So, 20.01. 13:00 62% 26 km
Ortszeit Relative Feuchte Sichtweite
Di, 22.01. 8:30 92% 2.0 km
Di, 22.01. 8:20 92% -
Di, 22.01. 8:10 92% -
Di, 22.01. 8:00 93% 2.5 km
Di, 22.01. 7:50 93% -
Di, 22.01. 7:40 91% -
Di, 22.01. 7:30 92% 2.4 km
Di, 22.01. 7:00 91% 2.6 km
Di, 22.01. 6:30 92% 2.4 km
Di, 22.01. 6:00 90% 2.7 km
Di, 22.01. 5:30 90% 3.2 km
Ortszeit Niederschlagsmenge Niederschlagsart
Di, 22.01. 7:00 0.0 l/m2 in 12 Std. -
Di, 22.01. 1:00 0.0 l/m2 in 6 Std. -
Mo, 21.01. 19:00 0.0 l/m2 in 12 Std. -
Mo, 21.01. 13:00 0.0 l/m2 in 6 Std. -
Mo, 21.01. 7:00 0.0 l/m2 in 12 Std. -
Mo, 21.01. 1:00 0.0 l/m2 in 6 Std. -
So, 20.01. 19:00 0.0 l/m2 in 12 Std. -
So, 20.01. 13:00 0.0 l/m2 in 6 Std. -
Ortszeit Niederschlagsmenge Niederschlagsart
Di, 22.01. 8:30 0.0 l/m2 in 1 Std. -
Di, 22.01. 8:20 keine Meldung -
Di, 22.01. 8:10 keine Meldung -
Di, 22.01. 8:00 0.0 l/m2 in 1 Std. -
Di, 22.01. 7:50 keine Meldung -
Di, 22.01. 7:40 keine Meldung -
Di, 22.01. 7:30 0.0 l/m2 in 1 Std. -
Di, 22.01. 7:00 0.0 l/m2 in 1 Std. -
Di, 22.01. 6:30 0.0 l/m2 in 1 Std. -
Di, 22.01. 6:00 0.0 l/m2 in 1 Std. -
Di, 22.01. 5:30 0.0 l/m2 in 1 Std. -
Ortszeit Stärke Spitze Richtung
km/h Bft. km/h Grad Sektor
Di, 22.01. 7:00 9 2 17 100° O
Di, 22.01. 1:00 7 2 14 110° O
Mo, 21.01. 19:00 4 1 11 80° O
Mo, 21.01. 13:00 0 0 11 - -
Mo, 21.01. 7:00 4 1 7 50° NO
Mo, 21.01. 1:00 4 1 7 150° SO
So, 20.01. 19:00 2 1 19 320° NW
So, 20.01. 13:00 7 2 13 130° SO
Ortszeit Stärke Spitze Richtung
km/h Bft. km/h Grad Sektor
Di, 22.01. 8:30 11 2 18 150° SO
Di, 22.01. 8:20 11 2 - 150° SO
Di, 22.01. 8:10 11 2 - 150° SO
Di, 22.01. 8:00 11 2 22 150° SO
Di, 22.01. 7:50 11 2 - 150° SO
Di, 22.01. 7:40 9 2 - 140° SO
Di, 22.01. 7:30 11 2 18 140° SO
Di, 22.01. 7:00 9 2 15 100° O
Di, 22.01. 6:30 9 2 13 90° O
Di, 22.01. 6:00 9 2 15 90° O
Di, 22.01. 5:30 7 2 14 110° O
Ortszeit Untergrenze Bedeckung Gattung
total tief tief mittel hoch
Di, 22.01. 7:00 150 m 0/8 0/8 - - -
Di, 22.01. 1:00 870 m 6/8 6/8 - - -
Mo, 21.01. 19:00 7500 m 0/8 0/8 - - -
Mo, 21.01. 13:00 - 0/8 0/8 - - -
Mo, 21.01. 7:00 30 m 8/8 8/8 - - -
Mo, 21.01. 1:00 - 0/8 0/8 - - -
So, 20.01. 19:00 - 0/8 0/8 - - -
So, 20.01. 13:00 900 m 1/8 1/8 - - -
Ortszeit Bedeckungsgrad in Achtel und Wolkenuntergrenze
Di, 22.01. 8:30 8(90m)
Di, 22.01. 8:20 8(90m)
Di, 22.01. 8:10 8(120m)
Di, 22.01. 8:00 8(120m)
Di, 22.01. 7:50 8(120m)
Di, 22.01. 7:40 8(120m)
Di, 22.01. 7:30 7(120m)
Di, 22.01. 7:00 4(150m)
Di, 22.01. 6:30 keine Wolken
Di, 22.01. 6:00 keine Wolken
Di, 22.01. 5:30 keine Wolken
Ortszeit Luftdruck NN (hPa) Tendenz (hPa in 3 Std.)
Di, 22.01. 7:00 1017 - 1,3
Di, 22.01. 1:00 1020 - 0,7
Mo, 21.01. 19:00 1022 - 0,1
Mo, 21.01. 13:00 1024 - 0,8
Mo, 21.01. 7:00 1025 + 0,1
Mo, 21.01. 1:00 1024 + 1,0
So, 20.01. 19:00 1021 + 1,6
So, 20.01. 13:00 1019 + 0,3
Ortszeit Luftdruck NN (hPa) Tendenz (hPa in 3 Std.)
Di, 22.01. 8:30 1017 - 0,7
Di, 22.01. 8:20 1017 keine Meldung
Di, 22.01. 8:10 1017 keine Meldung
Di, 22.01. 8:00 1017 - 0,8
Di, 22.01. 7:50 1017 keine Meldung
Di, 22.01. 7:40 1017 keine Meldung
Di, 22.01. 7:30 1017 - 1,1
Di, 22.01. 7:00 1017 - 1,3
Di, 22.01. 6:30 1017 - 1,4
Di, 22.01. 6:00 1017 - 1,7
Di, 22.01. 5:30 1018 - 1,8
Ortszeit Schneehöhe (cm)
Di, 22.01. 7:00 0
Di, 22.01. 1:00 0
Mo, 21.01. 19:00 0
Mo, 21.01. 13:00 0
Mo, 21.01. 7:00 0
Mo, 21.01. 1:00 0
So, 20.01. 19:00 0
So, 20.01. 13:00 0
Ortszeit Schneehöhe (cm)
Di, 22.01. 8:30 0
Di, 22.01. 8:20 0
Di, 22.01. 8:10 0
Di, 22.01. 8:00 0
Di, 22.01. 7:50 0
Di, 22.01. 7:40 0
Di, 22.01. 7:30 0
Di, 22.01. 7:00 0
Di, 22.01. 6:30 0
Di, 22.01. 6:00 0
Di, 22.01. 5:30 0
Link zu dieser Seite / Seite empfehlen

Das Wetter in ...